Terminal Aerodrome Forecast
Issued by NWS Portland, OR

Home | Current Version | Previous Version | Text Only | Print | Product List | Glossary On
Versions: 1 2 3 4 5 6 7 8 9 10 11 12 13 14 15 16
000
FTUS46 KPQR 221735
TAFSLE
TAF
KSLE 221735Z 2218/2318 VRB03KT P6SM OVC014
     FM222000 36005KT P6SM SCT020 BKN045
     FM222200 34005KT P6SM SCT040
     FM230500 VRB03KT P6SM SKC
     FM231400 00000KT P6SM OVC015=

USA.gov is the U.S. government's official web portal to all federal, state and local government web resources and services.